sensor_id;sensor_type;location;lat;lon;timestamp;P1;durP1;ratioP1;P2;durP2;ratioP2
32946;SDS011;54465;51.230;22.504;2023-02-01T00:04:34;9.98;;;6.10;;
32946;SDS011;54465;51.230;22.504;2023-02-01T00:09:34;9.10;;;6.35;;
32946;SDS011;54465;51.230;22.504;2023-02-01T00:14:35;7.78;;;5.38;;
32946;SDS011;54465;51.230;22.504;2023-02-01T00:19:38;8.55;;;5.65;;
32946;SDS011;54465;51.230;22.504;2023-02-01T00:24:38;5.03;;;4.40;;
32946;SDS011;54465;51.230;22.504;2023-02-01T00:29:39;5.95;;;4.57;;
32946;SDS011;54465;51.230;22.504;2023-02-01T00:34:39;6.95;;;4.82;;
32946;SDS011;54465;51.230;22.504;2023-02-01T00:39:40;5.10;;;4.15;;
32946;SDS011;54465;51.230;22.504;2023-02-01T00:44:40;7.13;;;4.80;;
32946;SDS011;54465;51.230;22.504;2023-02-01T00:49:41;8.05;;;5.28;;
32946;SDS011;54465;51.230;22.504;2023-02-01T00:54:41;7.57;;;5.40;;
32946;SDS011;54465;51.230;22.504;2023-02-01T00:59:42;7.07;;;5.00;;
32946;SDS011;54465;51.230;22.504;2023-02-01T01:04:42;7.50;;;5.15;;
32946;SDS011;54465;51.230;22.504;2023-02-01T01:09:43;7.70;;;5.10;;
32946;SDS011;54465;51.230;22.504;2023-02-01T01:14:45;5.90;;;4.35;;
32946;SDS011;54465;51.230;22.504;2023-02-01T01:19:45;6.93;;;4.72;;
32946;SDS011;54465;51.230;22.504;2023-02-01T01:24:46;7.13;;;4.32;;
32946;SDS011;54465;51.230;22.504;2023-02-01T01:29:46;5.28;;;4.07;;
32946;SDS011;54465;51.230;22.504;2023-02-01T01:34:47;6.05;;;4.68;;
32946;SDS011;54465;51.230;22.504;2023-02-01T01:39:48;5.68;;;4.32;;
32946;SDS011;54465;51.230;22.504;2023-02-01T01:49:54;5.80;;;4.00;;
32946;SDS011;54465;51.230;22.504;2023-02-01T01:54:55;5.47;;;3.85;;
32946;SDS011;54465;51.230;22.504;2023-02-01T02:00:03;4.75;;;3.50;;
32946;SDS011;54465;51.230;22.504;2023-02-01T02:05:14;4.55;;;3.20;;
32946;SDS011;54465;51.230;22.504;2023-02-01T02:10:15;2.97;;;2.42;;
32946;SDS011;54465;51.230;22.504;2023-02-01T02:15:16;3.65;;;2.40;;
32946;SDS011;54465;51.230;22.504;2023-02-01T02:41:19;2.88;;;2.05;;
32946;SDS011;54465;51.230;22.504;2023-02-01T02:46:47;4.60;;;2.55;;
32946;SDS011;54465;51.230;22.504;2023-02-01T02:52:09;4.15;;;1.85;;
32946;SDS011;54465;51.230;22.504;2023-02-01T02:57:36;4.68;;;1.58;;
32946;SDS011;54465;51.230;22.504;2023-02-01T03:02:58;3.42;;;1.50;;
32946;SDS011;54465;51.230;22.504;2023-02-01T03:08:18;2.28;;;1.52;;
32946;SDS011;54465;51.230;22.504;2023-02-01T03:23:54;3.40;;;1.20;;
32946;SDS011;54465;51.230;22.504;2023-02-01T03:29:00;3.25;;;1.10;;
32946;SDS011;54465;51.230;22.504;2023-02-01T03:34:05;4.28;;;1.45;;
32946;SDS011;54465;51.230;22.504;2023-02-01T03:44:17;2.47;;;1.58;;
32946;SDS011;54465;51.230;22.504;2023-02-01T03:49:26;2.88;;;1.05;;
32946;SDS011;54465;51.230;22.504;2023-02-01T03:59:29;2.28;;;1.13;;
32946;SDS011;54465;51.230;22.504;2023-02-01T04:04:30;2.35;;;1.20;;
32946;SDS011;54465;51.230;22.504;2023-02-01T04:09:31;3.80;;;1.25;;
32946;SDS011;54465;51.230;22.504;2023-02-01T04:14:32;5.20;;;2.00;;
32946;SDS011;54465;51.230;22.504;2023-02-01T04:19:32;3.85;;;1.02;;
32946;SDS011;54465;51.230;22.504;2023-02-01T04:24:32;3.53;;;1.80;;
32946;SDS011;54465;51.230;22.504;2023-02-01T04:29:33;4.53;;;1.65;;
32946;SDS011;54465;51.230;22.504;2023-02-01T04:34:33;6.65;;;1.40;;
32946;SDS011;54465;51.230;22.504;2023-02-01T04:39:34;5.97;;;1.27;;
32946;SDS011;54465;51.230;22.504;2023-02-01T04:44:34;3.55;;;1.30;;
32946;SDS011;54465;51.230;22.504;2023-02-01T04:49:37;3.92;;;1.17;;
32946;SDS011;54465;51.230;22.504;2023-02-01T04:54:37;6.00;;;1.23;;
32946;SDS011;54465;51.230;22.504;2023-02-01T04:59:38;5.15;;;1.65;;
32946;SDS011;54465;51.230;22.504;2023-02-01T05:04:38;5.68;;;1.38;;
32946;SDS011;54465;51.230;22.504;2023-02-01T05:09:39;5.38;;;1.30;;
32946;SDS011;54465;51.230;22.504;2023-02-01T05:14:39;3.78;;;1.60;;
32946;SDS011;54465;51.230;22.504;2023-02-01T05:19:40;7.78;;;3.38;;
32946;SDS011;54465;51.230;22.504;2023-02-01T05:24:40;7.97;;;2.05;;
32946;SDS011;54465;51.230;22.504;2023-02-01T05:29:40;5.30;;;1.75;;
32946;SDS011;54465;51.230;22.504;2023-02-01T05:34:41;3.60;;;0.82;;
32946;SDS011;54465;51.230;22.504;2023-02-01T05:39:41;4.18;;;1.63;;
32946;SDS011;54465;51.230;22.504;2023-02-01T05:44:42;5.47;;;1.55;;
32946;SDS011;54465;51.230;22.504;2023-02-01T05:49:42;6.35;;;1.90;;
32946;SDS011;54465;51.230;22.504;2023-02-01T05:54:43;8.48;;;3.05;;
32946;SDS011;54465;51.230;22.504;2023-02-01T05:59:43;9.93;;;3.15;;
32946;SDS011;54465;51.230;22.504;2023-02-01T06:04:45;10.32;;;3.63;;
32946;SDS011;54465;51.230;22.504;2023-02-01T06:09:46;7.50;;;2.22;;
32946;SDS011;54465;51.230;22.504;2023-02-01T06:14:46;6.88;;;2.83;;
32946;SDS011;54465;51.230;22.504;2023-02-01T06:19:47;5.60;;;2.20;;
32946;SDS011;54465;51.230;22.504;2023-02-01T06:24:48;5.60;;;2.33;;
32946;SDS011;54465;51.230;22.504;2023-02-01T06:29:49;7.60;;;2.70;;
32946;SDS011;54465;51.230;22.504;2023-02-01T06:34:49;7.20;;;2.20;;
32946;SDS011;54465;51.230;22.504;2023-02-01T06:39:50;4.90;;;2.38;;
32946;SDS011;54465;51.230;22.504;2023-02-01T06:44:50;5.18;;;1.85;;
32946;SDS011;54465;51.230;22.504;2023-02-01T06:49:51;8.88;;;2.72;;
32946;SDS011;54465;51.230;22.504;2023-02-01T06:54:51;4.88;;;2.50;;
32946;SDS011;54465;51.230;22.504;2023-02-01T06:59:52;8.95;;;2.10;;
32946;SDS011;54465;51.230;22.504;2023-02-01T07:04:52;8.13;;;2.28;;
32946;SDS011;54465;51.230;22.504;2023-02-01T07:09:53;6.57;;;1.67;;
32946;SDS011;54465;51.230;22.504;2023-02-01T07:14:53;10.00;;;2.63;;
32946;SDS011;54465;51.230;22.504;2023-02-01T07:19:54;5.63;;;1.60;;
32946;SDS011;54465;51.230;22.504;2023-02-01T07:24:55;7.00;;;1.48;;
32946;SDS011;54465;51.230;22.504;2023-02-01T07:29:56;9.05;;;2.00;;
32946;SDS011;54465;51.230;22.504;2023-02-01T07:34:57;5.32;;;2.08;;
32946;SDS011;54465;51.230;22.504;2023-02-01T07:39:58;4.32;;;2.33;;
32946;SDS011;54465;51.230;22.504;2023-02-01T07:44:58;8.13;;;2.67;;
32946;SDS011;54465;51.230;22.504;2023-02-01T07:49:59;6.03;;;1.90;;
32946;SDS011;54465;51.230;22.504;2023-02-01T07:54:59;9.63;;;1.77;;
32946;SDS011;54465;51.230;22.504;2023-02-01T08:00:00;3.47;;;1.83;;
32946;SDS011;54465;51.230;22.504;2023-02-01T08:05:19;3.90;;;1.55;;
32946;SDS011;54465;51.230;22.504;2023-02-01T08:10:19;3.78;;;1.67;;
32946;SDS011;54465;51.230;22.504;2023-02-01T08:15:20;5.40;;;2.10;;
32946;SDS011;54465;51.230;22.504;2023-02-01T08:20:20;4.95;;;1.67;;
32946;SDS011;54465;51.230;22.504;2023-02-01T08:25:25;7.35;;;2.15;;
32946;SDS011;54465;51.230;22.504;2023-02-01T08:30:27;17.08;;;2.92;;
32946;SDS011;54465;51.230;22.504;2023-02-01T08:35:28;8.88;;;2.63;;
32946;SDS011;54465;51.230;22.504;2023-02-01T08:40:28;6.68;;;1.98;;
32946;SDS011;54465;51.230;22.504;2023-02-01T08:45:29;6.13;;;2.33;;
32946;SDS011;54465;51.230;22.504;2023-02-01T08:50:30;7.78;;;1.98;;
32946;SDS011;54465;51.230;22.504;2023-02-01T08:55:30;11.65;;;2.08;;
32946;SDS011;54465;51.230;22.504;2023-02-01T09:00:31;7.25;;;1.60;;
32946;SDS011;54465;51.230;22.504;2023-02-01T09:05:31;8.38;;;2.08;;
32946;SDS011;54465;51.230;22.504;2023-02-01T09:10:32;8.27;;;2.10;;
32946;SDS011;54465;51.230;22.504;2023-02-01T09:15:33;7.53;;;2.17;;
32946;SDS011;54465;51.230;22.504;2023-02-01T09:20:34;7.95;;;2.30;;
32946;SDS011;54465;51.230;22.504;2023-02-01T09:25:36;7.07;;;2.50;;
32946;SDS011;54465;51.230;22.504;2023-02-01T09:30:38;6.90;;;1.92;;
32946;SDS011;54465;51.230;22.504;2023-02-01T09:35:38;7.70;;;2.08;;
32946;SDS011;54465;51.230;22.504;2023-02-01T09:40:39;11.13;;;2.70;;
32946;SDS011;54465;51.230;22.504;2023-02-01T09:45:49;7.38;;;2.38;;
32946;SDS011;54465;51.230;22.504;2023-02-01T09:50:56;8.23;;;2.00;;
32946;SDS011;54465;51.230;22.504;2023-02-01T09:56:40;7.55;;;1.95;;
32946;SDS011;54465;51.230;22.504;2023-02-01T10:01:23;5.32;;;1.88;;
32946;SDS011;54465;51.230;22.504;2023-02-01T10:22:48;6.05;;;2.20;;
32946;SDS011;54465;51.230;22.504;2023-02-01T10:27:56;7.00;;;2.35;;
32946;SDS011;54465;51.230;22.504;2023-02-01T10:33:02;3.90;;;1.90;;
32946;SDS011;54465;51.230;22.504;2023-02-01T10:38:17;6.20;;;2.33;;
32946;SDS011;54465;51.230;22.504;2023-02-01T10:43:24;5.32;;;1.92;;
32946;SDS011;54465;51.230;22.504;2023-02-01T10:48:24;6.93;;;2.58;;
32946;SDS011;54465;51.230;22.504;2023-02-01T10:53:31;8.77;;;2.65;;
32946;SDS011;54465;51.230;22.504;2023-02-01T10:58:59;8.98;;;3.05;;
32946;SDS011;54465;51.230;22.504;2023-02-01T11:04:09;12.23;;;4.40;;
32946;SDS011;54465;51.230;22.504;2023-02-01T11:09:19;9.18;;;3.35;;
32946;SDS011;54465;51.230;22.504;2023-02-01T11:19:25;5.88;;;2.13;;
32946;SDS011;54465;51.230;22.504;2023-02-01T11:24:27;6.13;;;2.15;;
32946;SDS011;54465;51.230;22.504;2023-02-01T11:29:40;11.48;;;2.83;;
32946;SDS011;54465;51.230;22.504;2023-02-01T11:34:46;8.30;;;3.08;;
32946;SDS011;54465;51.230;22.504;2023-02-01T11:39:58;9.63;;;2.97;;
32946;SDS011;54465;51.230;22.504;2023-02-01T11:45:19;10.35;;;3.75;;
32946;SDS011;54465;51.230;22.504;2023-02-01T12:06:25;10.93;;;4.90;;
32946;SDS011;54465;51.230;22.504;2023-02-01T12:33:31;23.40;;;6.40;;
32946;SDS011;54465;51.230;22.504;2023-02-01T12:38:44;25.25;;;7.65;;
32946;SDS011;54465;51.230;22.504;2023-02-01T12:43:52;11.85;;;4.40;;
32946;SDS011;54465;51.230;22.504;2023-02-01T12:48:58;8.60;;;3.67;;
32946;SDS011;54465;51.230;22.504;2023-02-01T12:54:13;7.40;;;2.55;;
32946;SDS011;54465;51.230;22.504;2023-02-01T12:59:36;6.80;;;2.80;;
32946;SDS011;54465;51.230;22.504;2023-02-01T13:04:55;11.02;;;3.30;;
32946;SDS011;54465;51.230;22.504;2023-02-01T13:20:28;10.95;;;4.65;;
32946;SDS011;54465;51.230;22.504;2023-02-01T13:42:01;6.78;;;3.17;;
32946;SDS011;54465;51.230;22.504;2023-02-01T13:47:22;11.05;;;3.72;;
32946;SDS011;54465;51.230;22.504;2023-02-01T13:52:40;11.52;;;4.05;;
32946;SDS011;54465;51.230;22.504;2023-02-01T13:57:44;7.57;;;4.05;;
32946;SDS011;54465;51.230;22.504;2023-02-01T14:02:49;12.82;;;5.63;;
32946;SDS011;54465;51.230;22.504;2023-02-01T14:13:13;9.07;;;3.40;;
32946;SDS011;54465;51.230;22.504;2023-02-01T14:23:38;13.20;;;5.20;;
32946;SDS011;54465;51.230;22.504;2023-02-01T14:28:48;11.70;;;5.13;;
32946;SDS011;54465;51.230;22.504;2023-02-01T14:33:55;11.10;;;4.25;;
32946;SDS011;54465;51.230;22.504;2023-02-01T14:38:58;9.43;;;5.30;;
32946;SDS011;54465;51.230;22.504;2023-02-01T14:49:02;10.35;;;4.43;;
32946;SDS011;54465;51.230;22.504;2023-02-01T14:54:03;10.43;;;4.45;;
32946;SDS011;54465;51.230;22.504;2023-02-01T14:59:06;10.90;;;4.40;;
32946;SDS011;54465;51.230;22.504;2023-02-01T15:04:13;12.00;;;5.20;;
32946;SDS011;54465;51.230;22.504;2023-02-01T15:09:19;9.68;;;5.00;;
32946;SDS011;54465;51.230;22.504;2023-02-01T15:14:20;10.70;;;5.40;;
32946;SDS011;54465;51.230;22.504;2023-02-01T15:19:22;10.48;;;5.03;;
32946;SDS011;54465;51.230;22.504;2023-02-01T15:24:30;12.93;;;4.95;;
32946;SDS011;54465;51.230;22.504;2023-02-01T15:29:31;12.63;;;4.53;;
32946;SDS011;54465;51.230;22.504;2023-02-01T15:34:49;14.30;;;5.80;;
32946;SDS011;54465;51.230;22.504;2023-02-01T15:40:02;11.50;;;5.60;;
32946;SDS011;54465;51.230;22.504;2023-02-01T15:45:22;16.08;;;5.88;;
32946;SDS011;54465;51.230;22.504;2023-02-01T15:50:26;18.10;;;8.40;;
32946;SDS011;54465;51.230;22.504;2023-02-01T15:55:37;12.57;;;6.95;;
32946;SDS011;54465;51.230;22.504;2023-02-01T16:00:46;14.18;;;6.82;;
32946;SDS011;54465;51.230;22.504;2023-02-01T16:05:54;17.13;;;7.47;;
32946;SDS011;54465;51.230;22.504;2023-02-01T16:11:00;20.60;;;10.25;;
32946;SDS011;54465;51.230;22.504;2023-02-01T16:16:23;22.33;;;10.38;;
32946;SDS011;54465;51.230;22.504;2023-02-01T16:21:24;14.80;;;8.32;;
32946;SDS011;54465;51.230;22.504;2023-02-01T16:26:24;16.88;;;8.45;;
32946;SDS011;54465;51.230;22.504;2023-02-01T16:31:28;14.50;;;8.10;;
32946;SDS011;54465;51.230;22.504;2023-02-01T16:36:29;21.52;;;9.00;;
32946;SDS011;54465;51.230;22.504;2023-02-01T16:41:30;14.73;;;7.85;;
32946;SDS011;54465;51.230;22.504;2023-02-01T16:46:32;16.85;;;8.40;;
32946;SDS011;54465;51.230;22.504;2023-02-01T16:51:35;13.82;;;6.93;;
32946;SDS011;54465;51.230;22.504;2023-02-01T16:56:40;14.85;;;6.63;;
32946;SDS011;54465;51.230;22.504;2023-02-01T17:01:42;29.08;;;11.98;;
32946;SDS011;54465;51.230;22.504;2023-02-01T17:06:42;37.85;;;13.98;;
32946;SDS011;54465;51.230;22.504;2023-02-01T17:11:47;48.60;;;16.38;;
32946;SDS011;54465;51.230;22.504;2023-02-01T17:16:47;40.60;;;14.18;;
32946;SDS011;54465;51.230;22.504;2023-02-01T17:21:50;28.38;;;12.70;;
32946;SDS011;54465;51.230;22.504;2023-02-01T17:26:54;14.38;;;6.78;;
32946;SDS011;54465;51.230;22.504;2023-02-01T17:31:54;16.50;;;8.63;;
32946;SDS011;54465;51.230;22.504;2023-02-01T17:36:55;18.00;;;8.45;;
32946;SDS011;54465;51.230;22.504;2023-02-01T17:41:56;17.92;;;8.05;;
32946;SDS011;54465;51.230;22.504;2023-02-01T17:46:56;22.02;;;11.40;;
32946;SDS011;54465;51.230;22.504;2023-02-01T17:51:58;21.75;;;11.27;;
32946;SDS011;54465;51.230;22.504;2023-02-01T17:56:59;14.63;;;8.65;;
32946;SDS011;54465;51.230;22.504;2023-02-01T18:02:02;15.80;;;9.05;;
32946;SDS011;54465;51.230;22.504;2023-02-01T18:07:02;27.48;;;12.52;;
32946;SDS011;54465;51.230;22.504;2023-02-01T18:12:03;13.68;;;8.00;;
32946;SDS011;54465;51.230;22.504;2023-02-01T18:17:04;14.45;;;6.85;;
32946;SDS011;54465;51.230;22.504;2023-02-01T18:22:05;17.23;;;8.02;;
32946;SDS011;54465;51.230;22.504;2023-02-01T18:27:06;13.90;;;7.18;;
32946;SDS011;54465;51.230;22.504;2023-02-01T18:32:08;13.57;;;7.85;;
32946;SDS011;54465;51.230;22.504;2023-02-01T18:37:08;32.50;;;15.23;;
32946;SDS011;54465;51.230;22.504;2023-02-01T18:42:09;34.55;;;17.42;;
32946;SDS011;54465;51.230;22.504;2023-02-01T18:47:11;28.77;;;16.10;;
32946;SDS011;54465;51.230;22.504;2023-02-01T18:52:11;27.45;;;14.48;;
32946;SDS011;54465;51.230;22.504;2023-02-01T18:57:12;22.88;;;14.65;;
32946;SDS011;54465;51.230;22.504;2023-02-01T19:02:15;17.02;;;8.90;;
32946;SDS011;54465;51.230;22.504;2023-02-01T19:07:15;18.35;;;8.23;;
32946;SDS011;54465;51.230;22.504;2023-02-01T19:12:16;14.75;;;8.48;;
32946;SDS011;54465;51.230;22.504;2023-02-01T19:17:16;11.55;;;6.85;;
32946;SDS011;54465;51.230;22.504;2023-02-01T19:22:17;10.35;;;6.43;;
32946;SDS011;54465;51.230;22.504;2023-02-01T19:27:18;14.23;;;7.45;;
32946;SDS011;54465;51.230;22.504;2023-02-01T19:32:18;11.15;;;6.43;;
32946;SDS011;54465;51.230;22.504;2023-02-01T19:37:19;10.15;;;5.40;;
32946;SDS011;54465;51.230;22.504;2023-02-01T19:42:19;12.10;;;6.80;;
32946;SDS011;54465;51.230;22.504;2023-02-01T19:47:20;9.95;;;5.90;;
32946;SDS011;54465;51.230;22.504;2023-02-01T19:52:20;8.32;;;5.45;;
32946;SDS011;54465;51.230;22.504;2023-02-01T19:57:21;10.05;;;5.70;;
32946;SDS011;54465;51.230;22.504;2023-02-01T20:02:21;7.70;;;5.07;;
32946;SDS011;54465;51.230;22.504;2023-02-01T20:07:24;9.15;;;5.03;;
32946;SDS011;54465;51.230;22.504;2023-02-01T20:12:25;7.93;;;4.70;;
32946;SDS011;54465;51.230;22.504;2023-02-01T20:17:25;8.30;;;4.90;;
32946;SDS011;54465;51.230;22.504;2023-02-01T20:22:26;6.38;;;4.70;;
32946;SDS011;54465;51.230;22.504;2023-02-01T20:27:27;8.82;;;5.10;;
32946;SDS011;54465;51.230;22.504;2023-02-01T20:32:27;9.65;;;5.10;;
32946;SDS011;54465;51.230;22.504;2023-02-01T20:37:27;8.40;;;4.68;;
32946;SDS011;54465;51.230;22.504;2023-02-01T20:42:28;8.15;;;4.70;;
32946;SDS011;54465;51.230;22.504;2023-02-01T20:47:28;8.88;;;5.15;;
32946;SDS011;54465;51.230;22.504;2023-02-01T20:52:29;7.88;;;5.03;;
32946;SDS011;54465;51.230;22.504;2023-02-01T20:57:30;9.90;;;4.47;;
32946;SDS011;54465;51.230;22.504;2023-02-01T21:02:30;10.70;;;5.15;;
32946;SDS011;54465;51.230;22.504;2023-02-01T21:07:31;7.15;;;4.43;;
32946;SDS011;54465;51.230;22.504;2023-02-01T21:12:31;11.05;;;5.07;;
32946;SDS011;54465;51.230;22.504;2023-02-01T21:17:32;11.02;;;5.03;;
32946;SDS011;54465;51.230;22.504;2023-02-01T21:22:33;9.48;;;5.35;;
32946;SDS011;54465;51.230;22.504;2023-02-01T21:27:33;12.43;;;5.28;;
32946;SDS011;54465;51.230;22.504;2023-02-01T21:32:34;11.25;;;5.75;;
32946;SDS011;54465;51.230;22.504;2023-02-01T21:37:34;10.85;;;5.88;;
32946;SDS011;54465;51.230;22.504;2023-02-01T21:42:35;11.75;;;5.10;;
32946;SDS011;54465;51.230;22.504;2023-02-01T21:47:37;6.90;;;3.83;;
32946;SDS011;54465;51.230;22.504;2023-02-01T21:52:38;10.05;;;5.00;;
32946;SDS011;54465;51.230;22.504;2023-02-01T21:57:38;10.50;;;4.40;;
32946;SDS011;54465;51.230;22.504;2023-02-01T22:02:39;9.85;;;4.93;;
32946;SDS011;54465;51.230;22.504;2023-02-01T22:07:39;10.50;;;5.63;;
32946;SDS011;54465;51.230;22.504;2023-02-01T22:12:40;10.20;;;4.57;;
32946;SDS011;54465;51.230;22.504;2023-02-01T22:17:40;9.20;;;4.30;;
32946;SDS011;54465;51.230;22.504;2023-02-01T22:22:42;10.35;;;4.22;;
32946;SDS011;54465;51.230;22.504;2023-02-01T22:27:42;8.20;;;4.35;;
32946;SDS011;54465;51.230;22.504;2023-02-01T22:32:43;11.65;;;4.75;;
32946;SDS011;54465;51.230;22.504;2023-02-01T22:37:43;10.43;;;5.13;;
32946;SDS011;54465;51.230;22.504;2023-02-01T22:42:45;9.98;;;5.82;;
32946;SDS011;54465;51.230;22.504;2023-02-01T22:47:47;8.95;;;5.53;;
32946;SDS011;54465;51.230;22.504;2023-02-01T22:52:48;10.18;;;4.68;;
32946;SDS011;54465;51.230;22.504;2023-02-01T22:57:48;6.47;;;4.45;;
32946;SDS011;54465;51.230;22.504;2023-02-01T23:02:49;10.00;;;4.95;;
32946;SDS011;54465;51.230;22.504;2023-02-01T23:07:50;9.63;;;5.07;;
32946;SDS011;54465;51.230;22.504;2023-02-01T23:12:51;12.13;;;4.68;;
32946;SDS011;54465;51.230;22.504;2023-02-01T23:17:52;10.48;;;3.88;;
32946;SDS011;54465;51.230;22.504;2023-02-01T23:22:52;10.23;;;4.88;;
32946;SDS011;54465;51.230;22.504;2023-02-01T23:27:52;7.95;;;5.03;;
32946;SDS011;54465;51.230;22.504;2023-02-01T23:32:53;10.57;;;5.35;;
32946;SDS011;54465;51.230;22.504;2023-02-01T23:37:53;8.75;;;5.00;;
32946;SDS011;54465;51.230;22.504;2023-02-01T23:42:54;8.57;;;6.25;;
32946;SDS011;54465;51.230;22.504;2023-02-01T23:48:13;8.82;;;5.57;;
32946;SDS011;54465;51.230;22.504;2023-02-01T23:53:13;10.43;;;5.28;;
32946;SDS011;54465;51.230;22.504;2023-02-01T23:58:14;8.32;;;4.93;;
